首页
METAR-TAF:

METAR-TAF

机场 :

伊魁特機場

伊魁特, 努那武特, 加拿大

纬度: 63-45N, 经度: 068-33W, 海拔: 34米

当前天气观测

该预报发布于18分钟前的23:00 UTC
风速10节,风向西北
温度 8°C
湿度 61%
气压 1006 hPa
能見度: 48.3公里
散云层高于3500英尺
多云层高于8000英尺

METAR: CYFB 232300Z 32010KT 30SM SCT035 BKN080 08/01 A2970 RMK SC3AC4 SLP062

时间: 19:18 (23:18 UTC)

预报

该预报发布于5小时和40分钟前的17:38 UTC
预报有效从23日的 18点(UTC)到 24日的 18点(UTC)
风速3节,风向多变
能見度: 10公里
散云层高于2000英尺
阴天层高于4000英尺
短暂存在
从 23日的 18点(UTC)到 24日的 03点(UTC)
多云层高于2000英尺
阴天层高于4000英尺
成为
从 23日的 20点(UTC)到 23日的 22点(UTC)
风速10节,风向北转西北
从 24日的 0300点(UTC)
风速10节,风向北转西北
能見度: 10公里
多云层高于1000英尺
多云层高于4000英尺
短暂存在
从 24日的 03点(UTC)到 24日的 14点(UTC)
能見度: 8.0公里
小雨, 雪, 轻雾
从 24日的 1400点(UTC)
风速15节,风向北转西北
能見度: 10公里
多云层高于1500英尺
短暂存在
从 24日的 14点(UTC)到 24日的 18点(UTC)
多云层高于800英尺

TAF: CYFB 231738Z 2318/2418 VRB03KT P6SM SCT020 OVC040 TEMPO 2318/2403 BKN020 OVC040 BECMG 2320/2322 33010KT FM240300 33010KT P6SM BKN010 BKN040 TEMPO 2403/2414 5SM -RASN BR FM241400 33015KT P6SM BKN015 TEMPO 2414/2418 BKN008 RMK NXT FCST BY 240000Z

超过4000个机场的气象观测和天气预报(METAR&TAF报告)。

可查询的气象台以黄色和红色小点在地图上表示。

将鼠标移到小点上方,可查看气象台名称。

然后点击查看天气观测和预报。

如需切换地图:点击带黑十字的绿色按钮放大地图;点击带横线的绿色按钮缩小地图;或者点击绿色箭头查看邻近地区的地图。


METAR-TAF: